Time;durP1;ratioP1;P1;durP2;ratioP2;P2;SDS_P1;SDS_P2;PMS_P1;PMS_P2;Temp;Humidity;BMP_temperature;BMP_pressure;BME280_temperature;BME280_humidity;BME280_pressure;Samples;Min_cycle;Max_cycle;Signal;HPM_P1;HPM_P2
2023/09/21 00:00:10;;;;;;;14.77;7.95;;;;;;;14.37;100.00;92297.00;5058634;28;20086;-81
2023/09/21 00:02:38;;;;;;;14.52;7.53;;;;;;;14.36;100.00;92295.44;5058851;28;20053;-81
2023/09/21 00:05:05;;;;;;;13.65;7.60;;;;;;;14.34;100.00;92298.41;5063759;28;20037;-81
2023/09/21 00:07:31;;;;;;;13.98;7.63;;;;;;;14.35;100.00;92291.28;5057475;28;20051;-81
2023/09/21 00:09:57;;;;;;;15.82;8.07;;;;;;;14.34;100.00;92285.25;5057955;28;20014;-81
2023/09/21 00:12:22;;;;;;;13.82;7.10;;;;;;;14.48;100.00;92285.06;5058639;28;20041;-81
2023/09/21 00:14:48;;;;;;;14.57;7.95;;;;;;;14.38;100.00;92282.75;5068636;28;20037;-81
2023/09/21 00:17:14;;;;;;;16.10;8.40;;;;;;;14.34;100.00;92279.97;5059810;28;20092;-81
2023/09/21 00:19:39;;;;;;;21.13;8.63;;;;;;;14.35;100.00;92278.13;5059372;28;20029;-81
2023/09/21 00:22:05;;;;;;;16.75;7.97;;;;;;;14.33;100.00;92275.78;5059173;28;20044;-81
2023/09/21 00:24:30;;;;;;;13.48;8.40;;;;;;;14.32;100.00;92274.25;5058863;28;20033;-81
2023/09/21 00:26:59;;;;;;;19.13;9.63;;;;;;;14.34;100.00;92274.72;5057611;28;20048;-81
2023/09/21 00:29:24;;;;;;;21.92;9.00;;;;;;;14.36;100.00;92274.38;5058501;28;20122;-80
2023/09/21 00:31:50;;;;;;;16.38;9.10;;;;;;;14.36;100.00;92275.19;5073763;28;20060;-79
2023/09/21 00:34:16;;;;;;;17.05;9.50;;;;;;;14.35;100.00;92273.63;5060182;28;20036;-80
2023/09/21 00:36:45;;;;;;;17.27;9.32;;;;;;;14.36;100.00;92269.13;5057851;28;20075;-81
2023/09/21 00:39:11;;;;;;;18.00;8.63;;;;;;;14.36;100.00;92264.66;5056995;28;20025;-82
2023/09/21 00:41:37;;;;;;;18.35;8.82;;;;;;;14.36;100.00;92261.22;5057602;28;20032;-81
2023/09/21 00:44:08;;;;;;;22.48;9.52;;;;;;;14.35;100.00;92263.09;5058294;28;20042;-82
2023/09/21 00:46:36;;;;;;;17.10;9.02;;;;;;;14.37;100.00;92254.88;5055074;28;20040;-81
2023/09/21 00:49:04;;;;;;;14.38;8.50;;;;;;;14.38;100.00;92251.16;5061741;28;20112;-81
2023/09/21 00:51:32;;;;;;;17.08;9.20;;;;;;;14.40;100.00;92254.25;5057312;28;20044;-81
2023/09/21 00:54:00;;;;;;;17.63;8.80;;;;;;;14.33;100.00;92244.19;5056870;28;20025;-81
2023/09/21 00:56:27;;;;;;;16.25;8.40;;;;;;;14.37;100.00;92249.63;5057691;28;20542;-81
2023/09/21 00:58:57;;;;;;;17.55;8.00;;;;;;;14.38;100.00;92235.34;5058442;28;20123;-81
2023/09/21 01:01:27;;;;;;;15.07;8.32;;;;;;;14.37;100.00;92234.59;5056771;28;20041;-81
2023/09/21 01:03:55;;;;;;;15.63;7.93;;;;;;;14.40;100.00;92237.69;5056393;28;20065;-81
2023/09/21 01:06:21;;;;;;;19.35;8.63;;;;;;;14.42;100.00;92223.09;5058426;28;20056;-81
2023/09/21 01:08:48;;;;;;;17.95;9.13;;;;;;;14.44;100.00;92225.44;5058340;28;20049;-80
2023/09/21 01:11:15;;;;;;;14.57;8.23;;;;;;;14.43;100.00;92227.28;5056757;28;20017;-81
2023/09/21 01:13:41;;;;;;;13.18;7.45;;;;;;;14.41;100.00;92228.69;5057499;28;20040;-81
2023/09/21 01:16:17;;;;;;;14.02;6.90;;;;;;;14.39;100.00;92213.22;5062142;28;20039;-81
2023/09/21 01:18:43;;;;;;;17.45;7.60;;;;;;;14.42;100.00;92215.19;5056066;28;20033;-81
2023/09/21 01:21:10;;;;;;;17.33;6.95;;;;;;;14.42;100.00;92209.94;5053527;28;20025;-80
2023/09/21 01:23:43;;;;;;;17.33;6.93;;;;;;;14.41;100.00;92213.66;5058514;28;20500;-80
2023/09/21 01:26:10;;;;;;;13.75;6.18;;;;;;;14.38;100.00;92209.78;5056480;28;20036;-80
2023/09/21 01:28:37;;;;;;;14.30;7.18;;;;;;;14.38;100.00;92209.78;5056152;28;20033;-79
2023/09/21 01:31:03;;;;;;;16.75;6.75;;;;;;;14.35;100.00;92199.88;5057387;28;20048;-80
2023/09/21 01:33:28;;;;;;;12.77;7.00;;;;;;;14.38;100.00;92211.66;5056764;28;20035;-78
2023/09/21 01:35:54;;;;;;;16.25;7.28;;;;;;;14.37;100.00;92207.47;5056525;28;20127;-79
2023/09/21 01:38:20;;;;;;;15.35;7.75;;;;;;;14.38;100.00;92201.88;5058133;28;20036;-78
2023/09/21 01:40:48;;;;;;;15.63;6.97;;;;;;;14.40;100.00;92200.81;5059660;28;20068;-79
2023/09/21 01:43:15;;;;;;;17.98;7.32;;;;;;;14.40;100.00;92200.81;5066759;28;20078;-79
2023/09/21 01:45:42;;;;;;;12.00;6.57;;;;;;;14.40;100.00;92195.53;5057253;28;20049;-80
2023/09/21 01:48:10;;;;;;;11.90;7.05;;;;;;;14.39;100.00;92210.56;5057589;28;20029;-80
2023/09/21 01:50:43;;;;;;;14.68;6.35;;;;;;;14.36;100.00;92196.19;5056204;28;20063;-80
2023/09/21 01:53:12;;;;;;;14.57;6.97;;;;;;;14.45;100.00;92190.84;5058006;28;20063;-80
2023/09/21 01:55:39;;;;;;;11.77;6.88;;;;;;;14.39;100.00;92194.78;5057614;28;20056;-80
2023/09/21 01:58:07;;;;;;;18.98;7.45;;;;;;;14.34;100.00;92187.03;5056021;28;20037;-80
2023/09/21 02:00:36;;;;;;;17.30;6.40;;;;;;;14.29;100.00;92184.59;5056990;28;20028;-80
2023/09/21 02:03:05;;;;;;;13.32;6.38;;;;;;;14.30;100.00;92192.19;5056340;28;20033;-80
2023/09/21 02:05:31;;;;;;;12.00;6.55;;;;;;;14.29;100.00;92190.63;5057396;28;20499;-79
2023/09/21 02:07:58;;;;;;;12.88;6.53;;;;;;;14.27;100.00;92192.78;5056820;28;20117;-80
2023/09/21 02:10:24;;;;;;;15.07;6.47;;;;;;;14.29;100.00;92190.63;5056964;28;20029;-80
2023/09/21 02:12:55;;;;;;;11.55;5.82;;;;;;;14.28;100.00;92181.19;5065933;28;20044;-79
2023/09/21 02:15:21;;;;;;;15.13;6.65;;;;;;;14.27;100.00;92177.00;5060077;28;20045;-79
2023/09/21 02:17:47;;;;;;;14.18;6.57;;;;;;;14.33;100.00;92175.72;5057572;28;20078;-80
2023/09/21 02:20:14;;;;;;;16.67;7.00;;;;;;;14.36;100.00;92176.97;5055838;28;20029;-79
2023/09/21 02:22:50;;;;;;;13.52;6.50;;;;;;;14.38;100.00;92175.56;5057256;28;20043;-80
2023/09/21 02:25:17;;;;;;;15.48;6.85;;;;;;;14.27;100.00;92161.19;5057714;28;20041;-80
2023/09/21 02:27:47;;;;;;;19.70;6.40;;;;;;;14.28;100.00;92165.38;5035629;28;20100;-81
2023/09/21 02:30:20;;;;;;;13.88;6.70;;;;;;;14.30;100.00;92173.75;5048539;28;20032;-80
2023/09/21 02:32:53;;;;;;;14.75;7.22;;;;;;;14.29;100.00;92172.19;5056926;28;20052;-80
2023/09/21 02:35:25;;;;;;;12.35;6.70;;;;;;;14.28;100.00;92169.88;5055766;28;20416;-81
2023/09/21 02:37:52;;;;;;;15.35;7.10;;;;;;;14.24;100.00;92161.84;5070717;28;20036;-81
2023/09/21 02:40:19;;;;;;;15.20;7.28;;;;;;;14.23;100.00;92160.31;5056957;28;20044;-81
2023/09/21 02:42:50;;;;;;;14.45;7.47;;;;;;;14.23;100.00;92160.31;5054748;28;20059;-79
2023/09/21 02:45:18;;;;;;;14.25;7.15;;;;;;;14.24;100.00;92159.19;5038355;28;20037;-79
2023/09/21 02:47:45;;;;;;;13.85;7.32;;;;;;;14.24;100.00;92159.19;5057068;28;20033;-81
2023/09/21 02:50:15;;;;;;;15.50;7.03;;;;;;;14.28;100.00;92156.72;5041916;28;20032;-81
2023/09/21 02:52:54;;;;;;;13.48;6.40;;;;;;;14.29;100.00;92156.38;5054970;28;20110;-81
2023/09/21 02:55:26;;;;;;;14.48;6.25;;;;;;;14.27;100.00;92147.25;5058679;28;20033;-81
2023/09/21 02:57:59;;;;;;;14.32;6.65;;;;;;;14.28;100.00;92143.56;5059024;28;20108;-81
2023/09/21 03:00:34;;;;;;;15.40;6.80;;;;;;;14.25;100.00;92147.59;5058763;28;20041;-81
2023/09/21 03:03:04;;;;;;;19.02;6.13;;;;;;;14.26;100.00;92143.09;5058090;28;20033;-81
2023/09/21 03:05:36;;;;;;;13.63;5.88;;;;;;;14.23;100.00;92138.44;5079468;28;20029;-81
2023/09/21 03:08:05;;;;;;;12.13;5.97;;;;;;;14.25;100.00;92131.81;5076828;28;20044;-81
2023/09/21 03:10:33;;;;;;;18.42;5.88;;;;;;;14.23;100.00;92133.19;5069416;28;20056;-81
2023/09/21 03:12:59;;;;;;;11.60;6.10;;;;;;;14.32;100.00;92132.06;5059601;28;20068;-81
2023/09/21 03:15:24;;;;;;;12.75;5.95;;;;;;;14.30;100.00;92131.63;5057241;28;20044;-81
2023/09/21 03:17:55;;;;;;;16.98;6.32;;;;;;;14.29;100.00;92127.44;5057868;28;20033;-80
2023/09/21 03:20:29;;;;;;;15.20;6.05;;;;;;;14.27;100.00;92126.97;5058222;28;20412;-80
2023/09/21 03:23:04;;;;;;;13.05;6.20;;;;;;;14.25;100.00;92126.53;5058105;28;20041;-80
2023/09/21 03:25:40;;;;;;;12.95;6.18;;;;;;;14.26;100.00;92128.06;5060151;28;20570;-80
2023/09/21 03:28:13;;;;;;;15.00;6.55;;;;;;;14.22;100.00;92121.91;5059345;28;20033;-80
2023/09/21 03:30:39;;;;;;;11.85;6.40;;;;;;;14.23;100.00;92126.09;5059258;28;20095;-80
2023/09/21 03:33:07;;;;;;;13.52;6.43;;;;;;;14.24;100.00;92132.88;5058691;28;20029;-81
2023/09/21 03:35:33;;;;;;;17.63;6.07;;;;;;;14.22;100.00;92127.16;5057774;28;20076;-81
2023/09/21 03:37:59;;;;;;;16.13;6.20;;;;;;;14.22;100.00;92124.53;5056876;28;20511;-80
2023/09/21 03:40:26;;;;;;;15.02;6.18;;;;;;;14.23;100.00;92120.03;5073270;28;20484;-80
2023/09/21 03:42:55;;;;;;;14.23;7.00;;;;;;;14.26;100.00;92124.69;5060509;28;20029;-80
2023/09/21 03:45:25;;;;;;;21.48;6.95;;;;;;;14.23;100.00;92118.19;5057804;28;20044;-80
2023/09/21 03:47:55;;;;;;;14.93;6.90;;;;;;;14.19;100.00;92109.38;5057953;28;20029;-80
2023/09/21 03:50:27;;;;;;;18.30;6.90;;;;;;;14.18;100.00;92110.44;5074600;28;20025;-81
2023/09/21 03:52:54;;;;;;;18.50;6.78;;;;;;;14.19;100.00;92106.75;5058155;28;20047;-80
2023/09/21 03:55:21;;;;;;;18.10;8.25;;;;;;;14.19;100.00;92114.63;5064764;28;20427;-81
2023/09/21 03:57:46;;;;;;;16.33;7.65;;;;;;;14.18;100.00;92110.44;5066152;28;20061;-80
2023/09/21 04:00:31;;;;;;;14.60;7.25;;;;;;;14.17;100.00;92114.19;5058085;28;20044;-80
2023/09/21 04:03:00;;;;;;;16.00;7.60;;;;;;;14.16;100.00;92102.88;5051168;28;20554;-80
2023/09/21 04:05:29;;;;;;;14.32;7.30;;;;;;;14.15;100.00;92106.59;5041678;28;20053;-80
2023/09/21 04:07:55;;;;;;;14.65;7.70;;;;;;;14.14;100.00;92099.03;5041863;28;20045;-81
2023/09/21 04:10:20;;;;;;;18.33;7.05;;;;;;;14.15;100.00;92103.97;5058924;28;20024;-80
2023/09/21 04:12:46;;;;;;;24.08;8.25;;;;;;;14.14;100.00;92093.75;5059288;28;20045;-80
2023/09/21 04:15:12;;;;;;;19.65;8.20;;;;;;;14.11;100.00;92089.13;5058988;28;20029;-81
2023/09/21 04:17:39;;;;;;;15.65;7.63;;;;;;;14.10;100.00;92092.84;5058904;28;20516;-80
2023/09/21 04:20:14;;;;;;;21.60;10.40;;;;;;;14.06;100.00;92081.41;5058028;28;20409;-81
2023/09/21 04:22:43;;;;;;;16.83;8.25;;;;;;;14.13;100.00;92084.31;5058142;28;20052;-80
2023/09/21 04:25:10;;;;;;;17.10;7.45;;;;;;;14.10;100.00;92079.69;5058296;28;20033;-80
2023/09/21 04:27:45;;;;;;;17.98;7.88;;;;;;;14.10;100.00;92083.09;5057997;28;20025;-80
2023/09/21 04:30:16;;;;;;;17.77;7.57;;;;;;;14.09;100.00;92081.53;5058542;28;20033;-81
2023/09/21 04:32:46;;;;;;;19.13;8.20;;;;;;;14.10;100.00;92087.59;5042321;28;20064;-81
2023/09/21 04:35:13;;;;;;;16.15;7.38;;;;;;;14.06;100.00;92089.31;5056028;28;20033;-81
2023/09/21 04:37:39;;;;;;;16.27;7.55;;;;;;;14.05;100.00;92085.91;5057001;28;20029;-81
2023/09/21 04:40:09;;;;;;;20.50;7.38;;;;;;;14.07;100.00;92086.38;5059098;28;20128;-80
2023/09/21 04:42:38;;;;;;;15.35;6.97;;;;;;;14.07;100.00;92096.09;5055055;28;20044;-83
2023/09/21 04:45:09;;;;;;;16.55;5.97;;;;;;;14.08;100.00;92093.16;5055989;28;20028;-81
2023/09/21 04:47:41;;;;;;;12.55;6.10;;;;;;;14.10;100.00;92096.25;5057644;28;20033;-80
2023/09/21 04:50:10;;;;;;;19.13;5.75;;;;;;;14.09;100.00;92104.44;5056400;28;20060;-81
2023/09/21 04:52:37;;;;;;;11.43;6.30;;;;;;;14.11;100.00;92108.31;5056326;28;20029;-81
2023/09/21 04:55:04;;;;;;;13.07;5.90;;;;;;;14.09;100.00;92107.09;5056648;28;20067;-80
2023/09/21 04:57:31;;;;;;;16.42;6.07;;;;;;;14.12;100.00;92103.84;5061746;28;20411;-81
2023/09/21 05:00:05;;;;;;;16.13;6.72;;;;;;;14.27;100.00;92105.16;5059432;28;20032;-81
2023/09/21 05:02:30;;;;;;;12.25;6.40;;;;;;;14.24;100.00;92114.44;5078029;28;20523;-81
2023/09/21 05:04:56;;;;;;;17.55;6.95;;;;;;;14.21;100.00;92119.56;5054147;28;20062;-80
2023/09/21 05:07:22;;;;;;;15.75;6.45;;;;;;;14.15;100.00;92116.34;5060999;28;20112;-81
2023/09/21 05:09:48;;;;;;;12.52;6.00;;;;;;;14.14;100.00;92110.31;5041985;28;20048;-81
2023/09/21 05:12:16;;;;;;;12.07;6.30;;;;;;;14.13;100.00;92108.75;5057553;28;20553;-81
2023/09/21 05:14:42;;;;;;;15.07;6.35;;;;;;;14.16;100.00;92107.34;5041614;28;20032;-81
2023/09/21 05:17:07;;;;;;;13.40;6.55;;;;;;;14.21;100.00;92109.03;5057897;28;20040;-81
2023/09/21 05:19:33;;;;;;;17.05;7.13;;;;;;;14.20;100.00;92112.78;5059919;28;20214;-81
2023/09/21 05:21:59;;;;;;;14.45;6.32;;;;;;;14.18;100.00;92112.31;5056397;28;20037;-80
2023/09/21 05:24:25;;;;;;;15.02;6.90;;;;;;;14.16;100.00;92107.34;5059958;28;20039;-78
2023/09/21 05:26:52;;;;;;;15.60;6.10;;;;;;;14.18;100.00;92107.81;5056427;28;20045;-80
2023/09/21 05:29:22;;;;;;;16.55;6.78;;;;;;;14.22;100.00;92116.63;5051744;28;20029;-80
2023/09/21 05:31:50;;;;;;;14.20;6.28;;;;;;;14.24;100.00;92109.19;5044860;28;20037;-81
2023/09/21 05:34:17;;;;;;;28.92;6.82;;;;;;;14.23;100.00;92107.66;5058913;28;20040;-80
2023/09/21 05:36:46;;;;;;;16.23;6.45;;;;;;;14.26;100.00;92114.91;5063372;28;20040;-80
2023/09/21 05:39:17;;;;;;;22.48;7.03;;;;;;;14.24;100.00;92108.41;5059598;28;20037;-81
2023/09/21 05:41:46;;;;;;;18.73;6.50;;;;;;;14.25;100.00;92110.75;5059850;28;20041;-80
2023/09/21 05:44:12;;;;;;;18.35;6.45;;;;;;;14.26;100.00;92107.00;5059647;28;20029;-80
2023/09/21 05:46:38;;;;;;;13.20;6.63;;;;;;;14.28;100.00;92102.19;5057853;28;20179;-80
2023/09/21 05:49:05;;;;;;;13.93;6.50;;;;;;;14.47;100.00;92106.28;5058827;28;20028;-81
2023/09/21 05:51:32;;;;;;;13.75;6.07;;;;;;;14.73;100.00;92101.66;5068184;28;20411;-80
2023/09/21 05:54:00;;;;;;;19.25;6.78;;;;;;;14.65;100.00;92099.84;5058908;28;20039;-81
2023/09/21 05:56:27;;;;;;;18.00;7.35;;;;;;;14.61;100.00;92092.91;5055051;28;20151;-81
2023/09/21 05:58:52;;;;;;;16.85;5.60;;;;;;;14.59;100.00;92101.13;5058652;28;20040;-81
2023/09/21 06:01:18;;;;;;;17.77;5.97;;;;;;;14.58;100.00;92102.22;5058589;28;20037;-81
2023/09/21 06:03:43;;;;;;;14.55;6.40;;;;;;;14.55;100.00;92101.00;5058245;28;20111;-80
2023/09/21 06:06:09;;;;;;;15.73;6.35;;;;;;;14.56;100.00;92092.00;5059235;28;20047;-81
2023/09/21 06:08:38;;;;;;;13.00;5.95;;;;;;;14.56;100.00;92093.84;5056993;28;20036;-81
2023/09/21 06:11:04;;;;;;;22.38;6.20;;;;;;;14.58;100.00;92094.31;5058614;28;20060;-80
2023/09/21 06:13:31;;;;;;;10.20;5.68;;;;;;;14.60;100.00;92105.31;5058240;28;20503;-81
2023/09/21 06:15:57;;;;;;;13.77;6.40;;;;;;;14.64;100.00;92094.91;5056800;28;20045;-81
2023/09/21 06:18:23;;;;;;;15.20;6.45;;;;;;;14.66;100.00;92092.69;5058456;28;20492;-80
2023/09/21 06:20:49;;;;;;;12.73;6.20;;;;;;;14.69;100.00;92102.63;5074186;28;20044;-80
2023/09/21 06:23:17;;;;;;;12.18;6.10;;;;;;;14.71;100.00;92095.16;5058834;28;20071;-79
2023/09/21 06:25:43;;;;;;;14.32;6.00;;;;;;;14.73;100.00;92091.13;5057360;28;20044;-79
2023/09/21 06:28:09;;;;;;;15.93;5.00;;;;;;;14.72;100.00;92097.47;5058090;28;20418;-79
2023/09/21 06:30:34;;;;;;;15.23;5.35;;;;;;;14.76;100.00;92098.38;5057438;28;20045;-80
2023/09/21 06:33:01;;;;;;;9.63;4.90;;;;;;;14.84;100.00;92093.34;5057682;28;20025;-80
2023/09/21 06:35:27;;;;;;;14.40;5.75;;;;;;;14.89;100.00;92091.31;5057994;28;20043;-80
2023/09/21 06:37:55;;;;;;;15.52;5.13;;;;;;;14.94;100.00;92098.25;5058892;28;20028;-78
2023/09/21 06:40:21;;;;;;;11.32;4.75;;;;;;;15.05;100.00;92099.41;5058214;28;20415;-79
2023/09/21 06:42:47;;;;;;;14.13;5.00;;;;;;;15.21;100.00;92102.22;5055781;28;20052;-81
2023/09/21 06:45:13;;;;;;;18.92;6.15;;;;;;;15.69;100.00;92100.81;5057189;28;20033;-80
2023/09/21 06:47:38;;;;;;;14.23;5.00;;;;;;;15.96;100.00;92104.78;5056827;28;20064;-80
2023/09/21 06:50:07;;;;;;;10.27;4.88;;;;;;;16.19;100.00;92099.84;5056882;28;20045;-79
2023/09/21 06:52:33;;;;;;;9.18;4.43;;;;;;;16.21;100.00;92099.50;5057063;28;20032;-80
2023/09/21 06:55:00;;;;;;;11.57;4.22;;;;;;;16.16;100.00;92100.47;5057903;28;20041;-80
2023/09/21 06:57:28;;;;;;;17.40;5.50;;;;;;;16.15;100.00;92108.75;5057525;28;20041;-80
2023/09/21 06:59:54;;;;;;;13.13;4.50;;;;;;;16.05;100.00;92115.22;5057874;28;20524;-80
2023/09/21 07:02:24;;;;;;;16.35;5.20;;;;;;;15.94;100.00;92109.59;5057971;28;20040;-80
2023/09/21 07:04:50;;;;;;;9.40;4.40;;;;;;;15.88;100.00;92118.06;5057253;28;20036;-81
2023/09/21 07:07:16;;;;;;;13.25;4.82;;;;;;;15.85;100.00;92116.84;5057857;28;20028;-79
2023/09/21 07:09:44;;;;;;;10.45;4.50;;;;;;;15.73;100.00;92124.72;5057742;28;20045;-80
2023/09/21 07:12:11;;;;;;;15.68;4.80;;;;;;;15.73;100.00;92122.09;5057833;28;20025;-80
2023/09/21 07:14:36;;;;;;;9.95;4.90;;;;;;;15.58;100.00;92113.69;5057720;28;20538;-79
2023/09/21 07:17:04;;;;;;;19.05;5.18;;;;;;;15.55;100.00;92109.03;5057636;28;20033;-78
2023/09/21 07:19:30;;;;;;;17.52;4.70;;;;;;;15.50;100.00;92117.16;5058773;28;20029;-78
2023/09/21 07:21:56;;;;;;;10.57;4.38;;;;;;;15.53;100.00;92118.38;5058072;28;20480;-79
2023/09/21 07:24:22;;;;;;;17.33;4.80;;;;;;;15.62;100.00;92122.47;5056793;28;20098;-79
2023/09/21 07:26:49;;;;;;;13.60;5.60;;;;;;;15.80;100.00;92119.69;5057015;28;20037;-80
2023/09/21 07:29:14;;;;;;;14.90;5.10;;;;;;;16.40;100.00;92118.22;5057277;28;20037;-80
2023/09/21 07:31:40;;;;;;;11.68;4.72;;;;;;;16.58;100.00;92107.41;5056342;28;20151;-80
2023/09/21 07:34:06;;;;;;;14.77;4.80;;;;;;;16.59;100.00;92103.66;5058140;28;20037;-80
2023/09/21 07:36:38;;;;;;;13.80;4.70;;;;;;;16.60;100.00;92102.56;5057567;28;20104;-79
2023/09/21 07:39:08;;;;;;;12.32;4.40;;;;;;;16.63;100.00;92109.81;5055683;28;20040;-80
2023/09/21 07:41:34;;;;;;;14.63;4.78;;;;;;;16.56;100.00;92105.09;5056542;28;20041;-80
2023/09/21 07:44:00;;;;;;;11.07;5.20;;;;;;;16.43;100.00;92116.78;5061755;28;20025;-79
2023/09/21 07:46:28;;;;;;;15.05;6.28;;;;;;;16.14;100.00;92109.84;5060842;28;20068;-80
2023/09/21 07:48:53;;;;;;;15.57;5.85;;;;;;;15.77;100.00;92113.19;5059511;28;20036;-79
2023/09/21 07:51:21;;;;;;;14.60;5.80;;;;;;;15.54;100.00;92115.41;5063417;28;20033;-81
2023/09/21 07:53:46;;;;;;;12.07;6.15;;;;;;;15.47;100.00;92114.38;5062329;28;20084;-79
2023/09/21 07:56:13;;;;;;;16.00;6.03;;;;;;;15.34;100.00;92113.59;5053218;28;20144;-79
2023/09/21 07:58:39;;;;;;;15.00;7.53;;;;;;;15.09;100.00;92112.72;5059434;28;20061;-78
2023/09/21 08:01:05;;;;;;;14.27;7.75;;;;;;;15.01;100.00;92111.69;5070675;28;20051;-78
2023/09/21 08:03:31;;;;;;;16.75;7.90;;;;;;;14.84;100.00;92106.53;5061626;28;20033;-79
2023/09/21 08:05:57;;;;;;;16.48;8.68;;;;;;;14.66;100.00;92103.25;5061684;28;20052;-78
2023/09/21 08:08:27;;;;;;;15.82;8.73;;;;;;;14.58;100.00;92107.47;5061488;28;20025;-78
2023/09/21 08:10:56;;;;;;;20.98;9.63;;;;;;;14.65;100.00;92091.94;5059624;28;20155;-79
2023/09/21 08:13:24;;;;;;;16.85;9.02;;;;;;;14.73;100.00;92099.03;5061653;28;20027;-79
2023/09/21 08:15:52;;;;;;;21.90;9.93;;;;;;;14.72;100.00;92108.00;5061621;28;20041;-79
2023/09/21 08:18:18;;;;;;;24.63;10.85;;;;;;;14.75;100.00;92110.00;5049114;28;20077;-79
2023/09/21 08:20:44;;;;;;;24.63;10.07;;;;;;;14.78;100.00;92106.72;5060370;28;20033;-79
2023/09/21 08:23:10;;;;;;;23.60;11.02;;;;;;;14.96;100.00;92117.91;5060781;28;20262;-80
2023/09/21 08:25:37;;;;;;;24.90;11.25;;;;;;;15.14;100.00;92113.28;5061383;28;20028;-78
2023/09/21 08:28:03;;;;;;;23.02;11.07;;;;;;;15.25;100.00;92111.03;5061167;28;20025;-79
2023/09/21 08:30:30;;;;;;;27.67;10.00;;;;;;;15.28;100.00;92113.00;5061688;28;20061;-79
2023/09/21 08:32:56;;;;;;;16.92;8.88;;;;;;;15.37;100.00;92120.84;5060930;28;20055;-79
2023/09/21 08:35:22;;;;;;;18.77;8.70;;;;;;;15.39;100.00;92116.78;5061686;28;20037;-80
2023/09/21 08:37:50;;;;;;;19.35;9.07;;;;;;;15.46;100.00;92121.53;5060880;28;20044;-80
2023/09/21 08:40:21;;;;;;;22.05;10.13;;;;;;;15.46;100.00;92128.69;5060527;28;20033;-80
2023/09/21 08:42:53;;;;;;;97.90;12.35;;;;;;;15.37;100.00;92131.41;5061298;28;20040;-77
2023/09/21 08:45:21;;;;;;;;;;;;;;;15.31;100.00;92141.38;5061162;28;20036;-80
2023/09/21 08:47:48;;;;;;;18.60;9.40;;;;;;;15.38;100.00;92132.94;5060791;28;19924;-79
2023/09/21 08:50:13;;;;;;;19.33;7.88;;;;;;;15.47;100.00;92135.50;5061410;28;20044;-78
2023/09/21 08:52:42;;;;;;;16.75;6.95;;;;;;;15.57;100.00;92129.81;5058801;28;20029;-80
2023/09/21 08:55:10;;;;;;;14.13;6.20;;;;;;;15.68;100.00;92143.38;5057836;28;20037;-80
2023/09/21 08:57:37;;;;;;;11.32;4.43;;;;;;;15.76;100.00;92137.25;5059784;28;20049;-80
2023/09/21 09:00:09;;;;;;;11.82;3.92;;;;;;;16.06;100.00;92123.94;5058887;28;20048;-79
2023/09/21 09:02:36;;;;;;;8.95;3.40;;;;;;;16.40;100.00;92117.44;5060445;28;20559;-80
2023/09/21 09:05:08;;;;;;;37.60;7.60;;;;;;;16.44;100.00;92113.81;5058383;28;20515;-79
2023/09/21 09:07:41;;;;;;;18.13;8.32;;;;;;;16.24;100.00;92112.81;5058282;28;20532;-78
2023/09/21 09:10:11;;;;;;;15.52;8.57;;;;;;;16.08;100.00;92116.44;5061590;28;20021;-79
2023/09/21 09:12:37;;;;;;;14.07;5.50;;;;;;;16.01;100.00;92112.47;5055887;28;20029;-79
2023/09/21 09:15:05;;;;;;;18.75;6.15;;;;;;;15.88;100.00;92116.19;5053571;28;20037;-78
2023/09/21 09:17:32;;;;;;;27.58;7.93;;;;;;;15.78;100.00;92106.84;5069738;28;20025;-79
2023/09/21 09:20:02;;;;;;;25.33;10.25;;;;;;;15.60;100.00;92114.13;5058087;28;20073;-79
2023/09/21 09:22:31;;;;;;;30.45;9.20;;;;;;;15.56;100.00;92107.97;5064544;28;20133;-78
2023/09/21 09:25:04;;;;;;;16.25;8.38;;;;;;;15.48;100.00;92111.44;5051670;28;20060;-79
2023/09/21 09:27:32;;;;;;;17.83;9.05;;;;;;;15.44;100.00;92113.19;5058398;28;20065;-79
2023/09/21 09:29:57;;;;;;;18.63;9.13;;;;;;;15.38;100.00;92115.25;5056896;28;20039;-78
2023/09/21 09:32:24;;;;;;;75.65;13.43;;;;;;;15.22;100.00;92113.53;5050247;28;20058;-79
2023/09/21 09:34:49;;;;;;;1104.82;39.88;;;;;;;15.22;100.00;92105.63;5067515;28;20103;-79
2023/09/21 09:37:16;;;;;;;193.10;14.57;;;;;;;15.22;100.00;92103.78;5057600;28;20045;-78
2023/09/21 09:39:43;;;;;;;313.45;18.45;;;;;;;15.26;100.00;92109.91;5056275;28;20399;-79
2023/09/21 09:42:11;;;;;;;23.30;12.30;;;;;;;15.08;100.00;92109.28;5054820;28;20040;-79
2023/09/21 09:44:43;;;;;;;22.88;8.82;;;;;;;15.01;100.00;92109.03;5056324;28;20480;-78
2023/09/21 09:47:12;;;;;;;18.63;8.57;;;;;;;15.04;100.00;92110.25;5056291;28;20068;-78
2023/09/21 09:49:41;;;;;;;18.10;8.48;;;;;;;14.99;100.00;92112.03;5057669;28;20021;-79
2023/09/21 09:52:09;;;;;;;37.28;11.07;;;;;;;15.01;100.00;92103.00;5055840;28;20029;-79
2023/09/21 09:54:36;;;;;;;20.48;9.18;;;;;;;14.91;100.00;92101.53;5056009;28;20340;-78
2023/09/21 09:57:04;;;;;;;23.88;8.80;;;;;;;14.92;100.00;92103.84;5055399;28;20116;-79
2023/09/21 09:59:31;;;;;;;15.40;8.02;;;;;;;14.92;100.00;92095.16;5058120;28;20028;-79
2023/09/21 10:01:59;;;;;;;15.63;7.70;;;;;;;14.88;100.00;92100.31;5055978;28;20386;-79
2023/09/21 10:04:26;;;;;;;15.40;6.10;;;;;;;14.89;100.00;92095.81;5051656;28;20428;-79
2023/09/21 10:06:52;;;;;;;16.23;5.90;;;;;;;14.78;100.00;92090.16;5056652;28;20573;-78
2023/09/21 10:09:18;;;;;;;13.48;5.97;;;;;;;14.78;100.00;92090.91;5046339;28;20041;-78
2023/09/21 10:11:48;;;;;;;16.33;6.00;;;;;;;14.81;100.00;92094.78;5061080;28;20060;-79
2023/09/21 10:14:16;;;;;;;17.60;6.47;;;;;;;14.87;100.00;92093.50;5057254;28;20082;-79
2023/09/21 10:16:49;;;;;;;15.77;6.30;;;;;;;14.89;100.00;92090.53;5060596;28;20254;-78
2023/09/21 10:19:17;;;;;;;13.95;6.30;;;;;;;14.94;100.00;92098.25;5069446;28;20093;-78
2023/09/21 10:21:45;;;;;;;17.67;6.95;;;;;;;15.09;100.00;92089.00;5057405;28;20051;-79
2023/09/21 10:24:14;;;;;;;21.23;6.95;;;;;;;15.13;100.00;92095.13;5056960;28;20041;-78
2023/09/21 10:26:45;;;;;;;23.40;6.53;;;;;;;15.18;100.00;92093.09;5057398;28;20029;-79
2023/09/21 10:29:12;;;;;;;17.90;8.00;;;;;;;15.30;100.00;92095.00;5057080;28;20076;-78
2023/09/21 10:31:39;;;;;;;22.67;6.97;;;;;;;15.33;100.00;92083.81;5057556;28;20029;-79
2023/09/21 10:34:12;;;;;;;24.70;7.68;;;;;;;15.42;100.00;92081.06;5054835;28;20041;-80
2023/09/21 10:36:43;;;;;;;22.42;7.38;;;;;;;15.31;100.00;92072.03;5056511;28;20051;-78
2023/09/21 10:39:11;;;;;;;32.60;8.35;;;;;;;15.24;100.00;92074.44;5056217;28;20036;-79
2023/09/21 10:41:45;;;;;;;20.98;8.15;;;;;;;15.23;100.00;92073.66;5056075;28;20244;-79
2023/09/21 10:44:12;;;;;;;17.25;7.65;;;;;;;15.26;100.00;92062.47;5056168;28;20437;-79
2023/09/21 10:46:38;;;;;;;17.52;7.63;;;;;;;15.15;100.00;92067.38;5071635;28;20036;-79
2023/09/21 10:49:03;;;;;;;15.52;7.22;;;;;;;15.07;100.00;92068.22;5056248;28;20044;-79
2023/09/21 10:51:33;;;;;;;21.00;8.20;;;;;;;15.14;100.00;92065.84;5056052;28;20028;-79
2023/09/21 10:54:00;;;;;;;18.38;8.02;;;;;;;15.28;100.00;92057.63;5055750;28;20037;-80
2023/09/21 10:56:26;;;;;;;23.13;8.00;;;;;;;15.22;100.00;92064.22;5055303;28;20047;-78
2023/09/21 10:58:52;;;;;;;20.70;8.50;;;;;;;15.30;100.00;92057.31;5039050;28;20045;-77
2023/09/21 11:01:22;;;;;;;20.38;9.60;;;;;;;15.12;100.00;92056.72;5035945;28;20083;-80
2023/09/21 11:03:48;;;;;;;21.33;9.38;;;;;;;15.19;100.00;92049.03;5037012;28;20068;-79
2023/09/21 11:06:16;;;;;;;22.85;8.90;;;;;;;15.19;100.00;92052.44;5046219;28;20083;-80
2023/09/21 11:08:46;;;;;;;21.90;9.05;;;;;;;15.19;100.00;92041.13;5056291;28;20041;-79
2023/09/21 11:11:12;;;;;;;31.23;9.10;;;;;;;15.25;100.00;92046.97;5056362;28;20056;-79
2023/09/21 11:13:41;;;;;;;26.10;9.10;;;;;;;15.31;100.00;92046.47;5056612;28;20033;-79
2023/09/21 11:16:09;;;;;;;26.55;9.55;;;;;;;15.35;100.00;92046.56;5036076;28;20064;-80
2023/09/21 11:18:38;;;;;;;27.48;9.23;;;;;;;15.38;100.00;92040.66;5051125;28;20178;-78